Webcam Flughafen St.Gallen-Altenrhein

Live-Bilder und Zeitraffer LSZR / ACH.

 

Live aus Altenrhein
LIVE
LSZR 091750Z 08004KT CAVOK 26/15 Q1015 NOSIG RMK R
Zeitraffer heute
2020-07-09 00:13:58
LSZR 082150Z AUTO VRB01KT CAVOK 18/12 Q1019